createdAt,value
2023-03-28T00:01:21.582Z,90.40
2023-03-28T00:03:49.073Z,90.27
2023-03-28T00:06:18.271Z,89.42
2023-03-28T00:11:44.902Z,89.65
2023-03-28T00:14:15.234Z,89.55
2023-03-28T00:16:45.444Z,88.29
2023-03-28T00:19:15.367Z,88.90
2023-03-28T00:21:46.714Z,88.92
2023-03-28T00:27:17.708Z,89.73
2023-03-28T00:29:46.494Z,90.62
2023-03-28T00:32:13.934Z,89.78
2023-03-28T00:34:41.474Z,90.24
2023-03-28T00:37:10.660Z,90.02
2023-03-28T00:39:39.933Z,90.44
2023-03-28T00:42:07.387Z,91.08
2023-03-28T00:44:51.670Z,92.15
2023-03-28T00:47:36.598Z,91.83
2023-03-28T00:50:07.049Z,90.98
2023-03-28T00:53:01.715Z,90.67
2023-03-28T00:55:32.144Z,90.99
2023-03-28T00:57:59.738Z,92.24
2023-03-28T01:00:30.780Z,92.22
2023-03-28T01:03:01.548Z,91.79
2023-03-28T01:05:32.501Z,92.15
2023-03-28T01:08:05.013Z,91.57
2023-03-28T01:13:37.692Z,89.91
2023-03-28T01:16:08.671Z,89.80
2023-03-28T01:18:41.186Z,89.01
2023-03-28T01:21:25.091Z,89.10
2023-03-28T01:24:43.376Z,89.35
2023-03-28T01:27:15.835Z,89.95
2023-03-28T01:30:04.900Z,90.17
2023-03-28T01:33:07.546Z,89.55
2023-03-28T01:35:55.327Z,89.92
2023-03-28T01:38:27.597Z,89.71
2023-03-28T01:41:03.521Z,90.46
2023-03-28T01:43:44.712Z,89.79
2023-03-28T01:46:15.774Z,89.62
2023-03-28T01:48:55.704Z,91.19
2023-03-28T01:51:25.974Z,90.98
2023-03-28T01:54:01.579Z,90.70
2023-03-28T01:56:34.237Z,90.66
2023-03-28T01:59:08.313Z,91.09
2023-03-28T02:01:59.484Z,89.62
2023-03-28T02:04:29.327Z,88.92
2023-03-28T02:10:04.951Z,88.93
2023-03-28T02:15:59.286Z,89.38
2023-03-28T02:18:49.022Z,89.49
2023-03-28T02:24:37.746Z,90.36
2023-03-28T02:27:14.489Z,89.79
2023-03-28T02:29:51.022Z,90.02
2023-03-28T02:32:37.602Z,89.29
2023-03-28T02:37:50.581Z,89.45
2023-03-28T02:43:49.315Z,90.85
2023-03-28T02:49:49.525Z,91.00
2023-03-28T02:52:24.435Z,90.99
2023-03-28T02:54:53.860Z,90.87
2023-03-28T02:57:32.859Z,90.82
2023-03-28T03:03:03.897Z,88.16
2023-03-28T03:05:31.397Z,88.50
2023-03-28T03:07:58.800Z,88.15
2023-03-28T03:10:26.641Z,88.36
2023-03-28T03:12:54.434Z,88.26
2023-03-28T03:15:22.222Z,88.88
2023-03-28T03:20:41.003Z,88.91
2023-03-28T03:23:09.543Z,88.94
2023-03-28T03:25:37.192Z,89.25
2023-03-28T03:31:15.204Z,90.15
2023-03-28T03:37:05.596Z,90.17
2023-03-28T03:39:33.763Z,89.88
2023-03-28T03:42:01.367Z,90.46
2023-03-28T03:44:31.727Z,90.17
2023-03-28T03:46:59.619Z,91.02
2023-03-28T03:49:29.155Z,90.72
2023-03-28T03:51:57.858Z,91.38
2023-03-28T03:57:26.093Z,90.09
2023-03-28T03:59:59.885Z,90.37
2023-03-28T04:02:29.049Z,90.76
2023-03-28T04:05:01.037Z,90.79
2023-03-28T04:07:43.743Z,90.88
2023-03-28T04:10:20.753Z,91.46
2023-03-28T04:12:49.564Z,91.43
2023-03-28T04:18:20.440Z,91.10
2023-03-28T04:20:53.674Z,90.85
2023-03-28T04:23:43.422Z,90.81
2023-03-28T04:26:27.586Z,91.99
2023-03-28T04:32:00.425Z,93.41
2023-03-28T04:37:53.712Z,92.58
2023-03-28T04:40:22.318Z,93.12
2023-03-28T04:43:16.023Z,92.74
2023-03-28T04:48:56.826Z,93.16
2023-03-28T04:51:28.509Z,93.30
2023-03-28T04:53:55.995Z,93.48
2023-03-28T04:56:45.397Z,92.71
2023-03-28T04:59:16.796Z,92.86
2023-03-28T05:01:49.078Z,93.44
2023-03-28T05:04:35.799Z,92.98
2023-03-28T05:07:05.858Z,93.22
2023-03-28T05:09:34.446Z,94.33
2023-03-28T05:12:01.884Z,94.62
2023-03-28T05:14:32.021Z,94.01
2023-03-28T05:20:24.065Z,93.92
2023-03-28T05:22:55.874Z,94.17
2023-03-28T05:25:24.325Z,93.69
2023-03-28T05:27:52.242Z,93.24
2023-03-28T05:30:41.759Z,93.39
2023-03-28T05:33:09.316Z,92.63
2023-03-28T05:35:39.078Z,93.35
2023-03-28T05:38:06.563Z,92.99
2023-03-28T05:40:33.991Z,92.59
2023-03-28T05:45:59.814Z,92.71
2023-03-28T05:48:34.095Z,93.52
2023-03-28T05:51:02.856Z,93.18
2023-03-28T05:53:30.320Z,93.05
2023-03-28T05:58:56.775Z,92.21
2023-03-28T06:01:27.679Z,92.34
2023-03-28T06:03:57.328Z,92.74
2023-03-28T06:06:27.448Z,91.84
2023-03-28T06:11:54.269Z,91.90
2023-03-28T06:14:21.800Z,90.21
2023-03-28T06:19:52.870Z,88.52
2023-03-28T06:22:22.313Z,88.01
2023-03-28T06:24:55.257Z,87.98
2023-03-28T06:27:27.936Z,87.42
2023-03-28T06:29:55.946Z,85.96
2023-03-28T06:32:24.097Z,85.22
2023-03-28T06:34:51.523Z,84.07
2023-03-28T06:37:19.692Z,83.43
2023-03-28T06:39:57.346Z,85.06
2023-03-28T06:42:46.855Z,80.72
2023-03-28T06:45:23.689Z,76.44
2023-03-28T06:51:15.822Z,68.95
2023-03-28T06:53:45.854Z,67.45
2023-03-28T06:56:15.607Z,65.41
2023-03-28T07:01:31.809Z,63.71
2023-03-28T07:04:13.098Z,61.79
2023-03-28T07:09:18.178Z,62.47
2023-03-28T07:11:52.276Z,59.99
2023-03-28T07:14:19.910Z,60.99
2023-03-28T07:16:47.454Z,58.29
2023-03-28T07:19:20.532Z,56.91
2023-03-28T07:21:48.870Z,56.69
2023-03-28T07:27:20.112Z,54.93
2023-03-28T07:29:47.606Z,57.07
2023-03-28T07:32:15.692Z,56.44
2023-03-28T07:34:45.747Z,54.61
2023-03-28T07:37:18.911Z,53.50
2023-03-28T07:43:07.091Z,57.67
2023-03-28T07:45:34.530Z,59.52
2023-03-28T07:48:02.130Z,61.00
2023-03-28T07:50:29.687Z,60.83
2023-03-28T07:52:59.074Z,58.48
2023-03-28T07:58:33.507Z,60.05
2023-03-28T08:01:07.306Z,58.86
2023-03-28T08:03:43.419Z,59.49
2023-03-28T08:08:54.219Z,60.22
2023-03-28T08:11:29.056Z,60.80
2023-03-28T08:16:56.113Z,60.64
2023-03-28T08:19:23.665Z,60.33
2023-03-28T08:22:20.625Z,60.19
2023-03-28T08:24:54.748Z,61.43
2023-03-28T08:27:23.902Z,62.96
2023-03-28T08:32:55.177Z,65.49
2023-03-28T08:35:23.160Z,65.66
2023-03-28T08:37:54.314Z,68.94
2023-03-28T08:43:48.643Z,72.21
2023-03-28T08:46:19.099Z,72.52
2023-03-28T08:48:49.588Z,70.27
2023-03-28T08:51:21.444Z,69.08
2023-03-28T08:56:53.263Z,67.82
2023-03-28T08:59:24.780Z,67.48
2023-03-28T09:01:52.403Z,64.92
2023-03-28T09:04:28.470Z,69.26
2023-03-28T09:07:15.654Z,65.66
2023-03-28T09:09:48.913Z,66.95
2023-03-28T09:15:53.727Z,65.38
2023-03-28T09:18:32.842Z,64.84
2023-03-28T09:24:21.941Z,62.58
2023-03-28T09:27:16.354Z,62.19
2023-03-28T09:29:45.119Z,61.91
2023-03-28T09:32:18.961Z,62.14
2023-03-28T09:35:06.872Z,57.36
2023-03-28T09:37:39.339Z,58.24
2023-03-28T09:43:16.825Z,57.54
2023-03-28T09:46:00.249Z,54.50
2023-03-28T09:49:03.035Z,56.58
2023-03-28T09:51:33.428Z,60.31
2023-03-28T09:54:05.663Z,59.67
2023-03-28T09:56:35.948Z,54.56
2023-03-28T10:02:28.279Z,58.50
2023-03-28T10:04:58.253Z,59.99
2023-03-28T10:07:34.829Z,56.24
2023-03-28T10:10:41.078Z,53.37
2023-03-28T10:16:13.113Z,54.06
2023-03-28T10:18:44.885Z,53.61
2023-03-28T10:21:32.820Z,53.25
2023-03-28T10:24:07.957Z,56.42
2023-03-28T10:26:37.076Z,57.98
2023-03-28T10:32:05.888Z,58.87
2023-03-28T10:34:42.109Z,55.87
2023-03-28T10:37:26.254Z,58.29
2023-03-28T10:40:25.230Z,60.44
2023-03-28T10:43:13.027Z,59.30
2023-03-28T10:46:15.360Z,59.18
2023-03-28T10:49:05.680Z,57.98
2023-03-28T10:51:38.356Z,58.14
2023-03-28T10:54:21.751Z,55.75
2023-03-28T10:56:53.570Z,57.52
2023-03-28T10:59:47.534Z,57.16
2023-03-28T11:02:30.209Z,55.51
2023-03-28T11:05:00.536Z,58.05
2023-03-28T11:07:34.189Z,51.55
2023-03-28T11:10:16.843Z,52.93
2023-03-28T11:15:58.371Z,54.25
2023-03-28T11:21:38.158Z,53.89
2023-03-28T11:24:25.730Z,52.97
2023-03-28T11:30:22.009Z,54.40
2023-03-28T11:33:15.282Z,55.96
2023-03-28T11:35:45.620Z,52.90
2023-03-28T11:38:15.723Z,52.12
2023-03-28T11:40:51.852Z,52.14
2023-03-28T11:43:29.073Z,54.00
2023-03-28T11:48:57.274Z,55.79
2023-03-28T11:51:31.773Z,56.86
2023-03-28T11:54:04.574Z,55.38
2023-03-28T11:59:44.202Z,54.98
2023-03-28T12:02:20.272Z,57.04
2023-03-28T12:04:51.181Z,54.76
2023-03-28T12:07:21.046Z,56.89
2023-03-28T12:09:59.857Z,52.10
2023-03-28T12:12:31.023Z,55.05
2023-03-28T12:15:02.247Z,52.54
2023-03-28T12:17:41.815Z,49.77
2023-03-28T12:20:15.736Z,52.83
2023-03-28T12:25:45.782Z,50.11
2023-03-28T12:28:20.571Z,47.47
2023-03-28T12:30:58.749Z,46.25
2023-03-28T12:33:34.211Z,45.91
2023-03-28T12:36:17.826Z,46.77
2023-03-28T12:38:49.824Z,48.28
2023-03-28T12:41:25.918Z,46.00
2023-03-28T12:43:56.895Z,48.33
2023-03-28T12:46:35.327Z,49.02
2023-03-28T12:49:05.715Z,47.43
2023-03-28T12:54:29.732Z,47.52
2023-03-28T12:57:04.769Z,50.15
2023-03-28T12:59:44.759Z,49.10
2023-03-28T13:02:26.914Z,49.76
2023-03-28T13:07:58.591Z,51.99
2023-03-28T13:10:33.286Z,54.82
2023-03-28T13:13:09.503Z,53.99
2023-03-28T13:15:51.534Z,52.81
2023-03-28T13:18:43.410Z,48.61
2023-03-28T13:21:12.420Z,50.86
2023-03-28T13:23:47.529Z,48.06
2023-03-28T13:26:17.227Z,47.83
2023-03-28T13:28:46.164Z,49.58
2023-03-28T13:31:21.032Z,48.22
2023-03-28T13:33:49.614Z,49.07
2023-03-28T13:36:27.544Z,46.34
2023-03-28T13:39:32.677Z,43.57
2023-03-28T13:42:01.241Z,46.41
2023-03-28T13:47:35.994Z,47.77
2023-03-28T13:50:06.604Z,47.76
2023-03-28T13:55:39.085Z,47.68
2023-03-28T13:58:06.580Z,49.29
2023-03-28T14:00:34.085Z,47.01
2023-03-28T14:06:13.064Z,46.34
2023-03-28T14:08:46.259Z,46.15
2023-03-28T14:11:17.331Z,45.32
2023-03-28T14:13:45.199Z,46.90
2023-03-28T14:16:12.702Z,45.81
2023-03-28T14:18:42.800Z,48.78
2023-03-28T14:21:10.388Z,48.01
2023-03-28T14:23:39.157Z,47.46
2023-03-28T14:29:14.586Z,48.65
2023-03-28T14:31:46.050Z,47.25
2023-03-28T14:34:18.010Z,49.27
2023-03-28T14:36:59.247Z,46.11
2023-03-28T14:42:28.328Z,46.31
2023-03-28T14:44:57.318Z,49.05
2023-03-28T14:47:28.211Z,47.66
2023-03-28T14:49:56.550Z,47.26
2023-03-28T14:52:27.611Z,48.92
2023-03-28T14:54:55.156Z,47.12
2023-03-28T14:57:22.717Z,49.10
2023-03-28T14:59:51.491Z,48.12
2023-03-28T15:02:24.977Z,47.96
2023-03-28T15:07:57.651Z,48.29
2023-03-28T15:10:26.222Z,47.27
2023-03-28T15:13:02.962Z,47.12
2023-03-28T15:15:32.274Z,43.77
2023-03-28T15:20:58.478Z,44.81
2023-03-28T15:26:22.288Z,47.13
2023-03-28T15:28:50.132Z,44.06
2023-03-28T15:31:18.004Z,47.23
2023-03-28T15:33:47.402Z,46.59
2023-03-28T15:36:18.862Z,47.31
2023-03-28T15:38:50.412Z,51.55
2023-03-28T15:44:26.342Z,52.37
2023-03-28T15:46:54.506Z,49.53
2023-03-28T15:49:21.931Z,50.65
2023-03-28T15:51:53.965Z,49.88
2023-03-28T15:54:30.848Z,46.97
2023-03-28T15:57:02.360Z,49.57
2023-03-28T15:59:34.263Z,45.66
2023-03-28T16:02:29.426Z,46.34
2023-03-28T16:05:01.517Z,47.03
2023-03-28T16:07:35.941Z,45.81
2023-03-28T16:10:03.502Z,46.27
2023-03-28T16:12:34.101Z,47.33
2023-03-28T16:15:27.056Z,46.62
2023-03-28T16:18:00.382Z,49.25
2023-03-28T16:20:37.479Z,50.54
2023-03-28T16:25:55.080Z,50.37
2023-03-28T16:28:22.529Z,51.30
2023-03-28T16:30:50.122Z,53.73
2023-03-28T16:33:17.588Z,54.51
2023-03-28T16:38:44.954Z,54.13
2023-03-28T16:41:13.932Z,52.68
2023-03-28T16:43:41.705Z,53.72
2023-03-28T16:46:11.118Z,53.38
2023-03-28T16:48:39.860Z,55.93
2023-03-28T16:51:08.060Z,55.81
2023-03-28T16:53:37.092Z,54.01
2023-03-28T16:59:08.222Z,55.10
2023-03-28T17:01:35.811Z,55.65
2023-03-28T17:04:03.811Z,55.41
2023-03-28T17:06:31.365Z,54.56
2023-03-28T17:11:47.795Z,56.40
2023-03-28T17:14:16.722Z,54.50
2023-03-28T17:16:45.723Z,57.54
2023-03-28T17:19:13.302Z,57.41
2023-03-28T17:24:40.038Z,61.96
2023-03-28T17:27:07.683Z,60.49
2023-03-28T17:29:37.052Z,64.41
2023-03-28T17:32:04.881Z,61.18
2023-03-28T17:37:30.802Z,59.21
2023-03-28T17:39:58.292Z,60.34
2023-03-28T17:42:25.953Z,58.16
2023-03-28T17:44:55.445Z,60.41
2023-03-28T17:47:24.129Z,60.13
2023-03-28T17:49:52.154Z,63.85
2023-03-28T17:55:22.101Z,65.49
2023-03-28T17:57:49.543Z,65.38
2023-03-28T18:00:19.342Z,67.59
2023-03-28T18:02:47.158Z,65.58
2023-03-28T18:05:45.607Z,65.15
2023-03-28T18:08:13.018Z,63.52
2023-03-28T18:10:41.275Z,62.31
2023-03-28T18:13:08.875Z,61.34
2023-03-28T18:18:26.319Z,60.09
2023-03-28T18:20:54.118Z,60.11
2023-03-28T18:23:21.991Z,62.40
2023-03-28T18:28:49.819Z,66.96
2023-03-28T18:31:19.767Z,70.92
2023-03-28T18:36:40.357Z,74.69
2023-03-28T18:39:08.151Z,73.69
2023-03-28T18:41:35.635Z,76.30
2023-03-28T18:44:03.405Z,74.57
2023-03-28T18:49:30.744Z,74.84
2023-03-28T18:52:04.129Z,74.63
2023-03-28T18:54:32.271Z,74.24
2023-03-28T18:57:00.205Z,74.45
2023-03-28T19:02:26.395Z,74.06
2023-03-28T19:04:54.003Z,75.32
2023-03-28T19:07:22.799Z,75.32
2023-03-28T19:09:53.466Z,73.16
2023-03-28T19:12:20.975Z,70.18
2023-03-28T19:14:50.003Z,71.09
2023-03-28T19:17:17.538Z,69.18
2023-03-28T19:19:45.066Z,70.40
2023-03-28T19:22:12.539Z,68.70
2023-03-28T19:24:41.606Z,67.95
2023-03-28T19:27:12.815Z,62.07
2023-03-28T19:29:40.394Z,62.47
2023-03-28T19:32:08.184Z,61.34
2023-03-28T19:34:35.848Z,61.59
2023-03-28T19:37:03.324Z,61.50
2023-03-28T19:39:30.715Z,60.46
2023-03-28T19:42:00.156Z,59.37
2023-03-28T19:47:29.770Z,60.35
2023-03-28T19:49:57.211Z,59.90
2023-03-28T19:52:24.893Z,59.46
2023-03-28T19:54:52.325Z,61.30
2023-03-28T19:57:21.133Z,60.91
2023-03-28T20:02:41.841Z,59.18
2023-03-28T20:05:10.399Z,60.26
2023-03-28T20:07:37.834Z,58.44
2023-03-28T20:10:06.072Z,58.56
2023-03-28T20:15:33.605Z,58.50
2023-03-28T20:18:02.244Z,59.33
2023-03-28T20:20:29.676Z,58.89
2023-03-28T20:22:58.011Z,57.11
2023-03-28T20:25:26.034Z,59.39
2023-03-28T20:27:53.459Z,58.87
2023-03-28T20:30:22.638Z,59.90
2023-03-28T20:32:51.904Z,60.29
2023-03-28T20:35:19.386Z,58.58
2023-03-28T20:37:47.086Z,60.92
2023-03-28T20:40:14.557Z,60.23
2023-03-28T20:42:42.237Z,59.93
2023-03-28T20:48:16.162Z,60.00
2023-03-28T20:50:47.185Z,58.63
2023-03-28T20:53:14.673Z,58.79
2023-03-28T20:55:43.237Z,58.62
2023-03-28T20:58:10.725Z,58.19
2023-03-28T21:00:39.722Z,60.47
2023-03-28T21:03:11.229Z,60.50
2023-03-28T21:08:38.113Z,59.94
2023-03-28T21:11:08.317Z,60.53
2023-03-28T21:13:35.763Z,60.04
2023-03-28T21:16:28.702Z,59.21
2023-03-28T21:18:56.390Z,61.30
2023-03-28T21:21:24.156Z,60.69
2023-03-28T21:23:53.260Z,61.49
2023-03-28T21:26:22.488Z,61.75
2023-03-28T21:28:52.182Z,61.36
2023-03-28T21:31:21.349Z,60.84
2023-03-28T21:33:49.758Z,60.86
2023-03-28T21:36:19.497Z,60.86
2023-03-28T21:38:48.488Z,61.01
2023-03-28T21:41:17.425Z,61.10
2023-03-28T21:46:44.778Z,61.16
2023-03-28T21:49:12.471Z,61.51
2023-03-28T21:51:39.966Z,60.40
2023-03-28T21:54:07.438Z,61.34
2023-03-28T21:59:26.180Z,61.76
2023-03-28T22:01:53.681Z,61.35
2023-03-28T22:04:21.795Z,62.49
2023-03-28T22:06:49.280Z,62.63
2023-03-28T22:09:16.677Z,63.31
2023-03-28T22:11:44.529Z,63.80
2023-03-28T22:14:12.708Z,63.93
2023-03-28T22:16:41.689Z,63.32
2023-03-28T22:19:09.724Z,64.51
2023-03-28T22:21:37.827Z,62.86
2023-03-28T22:24:10.358Z,64.65
2023-03-28T22:26:37.823Z,64.27
2023-03-28T22:29:05.996Z,64.67
2023-03-28T22:31:33.858Z,65.46
2023-03-28T22:37:01.299Z,65.41
2023-03-28T22:39:28.748Z,66.40
2023-03-28T22:44:44.807Z,68.40
2023-03-28T22:47:12.326Z,67.63
2023-03-28T22:49:40.074Z,69.25
2023-03-28T22:52:08.915Z,70.31
2023-03-28T22:57:34.778Z,70.91
2023-03-28T23:00:03.213Z,71.85
2023-03-28T23:02:30.913Z,71.90
2023-03-28T23:04:58.543Z,73.54
2023-03-28T23:07:27.556Z,73.19
2023-03-28T23:09:55.733Z,74.50
2023-03-28T23:12:23.192Z,75.17
2023-03-28T23:14:50.853Z,73.93
2023-03-28T23:17:18.927Z,73.70
2023-03-28T23:19:48.225Z,74.69
2023-03-28T23:22:17.409Z,74.55
2023-03-28T23:24:46.834Z,76.43
2023-03-28T23:30:14.500Z,77.15
2023-03-28T23:32:42.309Z,76.90
2023-03-28T23:35:11.556Z,76.57
2023-03-28T23:37:39.390Z,77.84
2023-03-28T23:40:14.100Z,77.45
2023-03-28T23:42:43.587Z,77.88
2023-03-28T23:45:12.036Z,78.36
2023-03-28T23:47:39.752Z,79.64
2023-03-28T23:52:58.252Z,80.13
2023-03-28T23:55:27.076Z,82.49
2023-03-28T23:57:55.813Z,82.43
